createdAt,value
2022-08-03T00:01:52.977Z,44.90
2022-08-03T00:04:19.812Z,46.10
2022-08-03T00:06:46.559Z,45.50
2022-08-03T00:09:13.372Z,46.20
2022-08-03T00:11:40.160Z,45.70
2022-08-03T00:14:07.936Z,45.80
2022-08-03T00:16:35.154Z,47.10
2022-08-03T00:19:02.707Z,46.30
2022-08-03T00:21:29.662Z,45.70
2022-08-03T00:23:56.611Z,48.40
2022-08-03T00:26:23.432Z,46.70
2022-08-03T00:28:50.793Z,46.90
2022-08-03T00:31:23.039Z,47.40
2022-08-03T00:34:04.537Z,47.70
2022-08-03T00:36:33.116Z,46.30
2022-08-03T00:41:27.267Z,47.10
2022-08-03T00:43:54.238Z,47.90
2022-08-03T00:46:22.422Z,47.10
2022-08-03T00:48:50.557Z,48.40
2022-08-03T00:51:18.110Z,47.70
2022-08-03T00:53:45.761Z,47.70
2022-08-03T00:56:18.726Z,48.80
2022-08-03T00:58:46.605Z,39.00
2022-08-03T01:01:14.037Z,48.20
2022-08-03T01:06:17.412Z,48.70
2022-08-03T01:09:06.674Z,38.30
2022-08-03T01:12:03.908Z,48.10
2022-08-03T01:14:51.567Z,38.60
2022-08-03T01:17:50.417Z,48.50
2022-08-03T01:20:20.704Z,49.40
2022-08-03T01:23:20.777Z,49.10
2022-08-03T01:26:00.005Z,48.90
2022-08-03T01:29:01.502Z,39.00
2022-08-03T01:32:58.801Z,48.90
2022-08-03T01:34:35.489Z,50.70
2022-08-03T01:37:05.994Z,49.20
2022-08-03T01:39:34.456Z,49.20
2022-08-03T01:42:06.193Z,50.60
2022-08-03T01:44:36.977Z,50.20
2022-08-03T01:47:05.149Z,49.60
2022-08-03T01:49:37.287Z,50.60
2022-08-03T01:52:05.627Z,50.20
2022-08-03T01:54:36.667Z,50.00
2022-08-03T01:57:05.022Z,40.00
2022-08-03T01:59:35.417Z,50.40
2022-08-03T02:02:28.717Z,40.00
2022-08-03T02:04:52.472Z,51.00
2022-08-03T02:07:20.182Z,50.70
2022-08-03T02:09:50.811Z,52.50
2022-08-03T02:12:18.730Z,40.50
2022-08-03T02:14:47.640Z,50.70
2022-08-03T02:17:15.501Z,52.80
2022-08-03T02:19:43.758Z,50.30
2022-08-03T02:22:12.802Z,50.40
2022-08-03T02:24:40.060Z,51.90
2022-08-03T02:27:18.341Z,51.50
2022-08-03T02:29:49.708Z,50.60
2022-08-03T02:32:20.385Z,52.30
2022-08-03T02:34:50.767Z,51.30
2022-08-03T02:37:19.772Z,51.10
2022-08-03T02:39:47.720Z,51.80
2022-08-03T02:42:17.463Z,41.00
2022-08-03T02:44:48.453Z,51.20
2022-08-03T02:47:16.256Z,52.40
2022-08-03T02:49:51.111Z,51.10
2022-08-03T02:52:21.900Z,41.10
2022-08-03T02:54:51.391Z,49.80
2022-08-03T02:57:20.019Z,51.40
2022-08-03T02:59:47.664Z,52.10
2022-08-03T03:02:16.897Z,52.70
2022-08-03T03:05:50.751Z,51.30
2022-08-03T03:07:52.110Z,41.20
2022-08-03T03:10:23.477Z,41.40
2022-08-03T03:12:56.493Z,42.40
2022-08-03T03:15:25.665Z,52.60
2022-08-03T03:17:53.670Z,41.70
2022-08-03T03:20:29.718Z,52.60
2022-08-03T03:23:00.041Z,52.40
2022-08-03T03:25:33.773Z,52.00
2022-08-03T03:28:02.539Z,53.10
2022-08-03T03:30:30.335Z,41.60
2022-08-03T03:32:58.800Z,53.10
2022-08-03T03:35:27.524Z,51.90
2022-08-03T03:37:54.581Z,53.00
2022-08-03T03:40:22.607Z,52.20
2022-08-03T03:42:50.220Z,52.70
2022-08-03T03:45:17.824Z,53.30
2022-08-03T03:47:44.694Z,52.50
2022-08-03T03:50:12.539Z,52.40
2022-08-03T03:52:39.397Z,47.70
2022-08-03T03:55:06.845Z,53.20
2022-08-03T03:57:34.605Z,41.90
2022-08-03T04:00:01.646Z,53.30
2022-08-03T04:02:31.288Z,52.40
2022-08-03T04:05:16.408Z,53.10
2022-08-03T04:08:14.588Z,52.30
2022-08-03T04:10:58.500Z,53.90
2022-08-03T04:13:36.704Z,52.40
2022-08-03T04:16:04.990Z,52.60
2022-08-03T04:18:35.069Z,53.30
2022-08-03T04:21:04.375Z,48.90
2022-08-03T04:23:34.448Z,42.30
2022-08-03T04:26:03.317Z,53.50
2022-08-03T04:28:32.550Z,53.60
2022-08-03T04:31:01.235Z,42.50
2022-08-03T04:33:32.494Z,53.00
2022-08-03T04:36:03.709Z,42.50
2022-08-03T04:38:36.554Z,53.90
2022-08-03T04:41:04.768Z,52.70
2022-08-03T04:43:34.024Z,52.70
2022-08-03T04:46:02.521Z,47.40
2022-08-03T04:48:29.704Z,54.00
2022-08-03T04:50:57.016Z,42.40
2022-08-03T04:53:23.997Z,53.40
2022-08-03T04:55:50.783Z,54.00
2022-08-03T04:58:17.580Z,52.70
2022-08-03T05:00:45.562Z,52.80
2022-08-03T05:05:52.954Z,52.80
2022-08-03T05:10:59.038Z,42.50
2022-08-03T05:18:20.737Z,53.40
2022-08-03T05:20:47.687Z,53.80
2022-08-03T05:25:49.772Z,53.20
2022-08-03T05:33:11.565Z,53.70
2022-08-03T05:36:02.021Z,53.50
2022-08-03T05:38:28.714Z,53.60
2022-08-03T05:41:21.490Z,54.50
2022-08-03T05:46:14.858Z,51.60
2022-08-03T05:48:42.839Z,42.80
2022-08-03T05:53:42.625Z,53.20
2022-08-03T05:58:46.885Z,54.20
2022-08-03T06:08:35.931Z,52.50
2022-08-03T06:11:03.396Z,52.20
2022-08-03T06:13:30.179Z,52.90
2022-08-03T06:18:27.231Z,52.50
2022-08-03T06:20:54.261Z,52.40
2022-08-03T06:23:23.854Z,53.00
2022-08-03T06:26:01.990Z,53.00
2022-08-03T06:28:52.525Z,52.30
2022-08-03T06:31:15.685Z,53.70
2022-08-03T06:36:31.549Z,53.20
2022-08-03T06:38:59.410Z,53.30
2022-08-03T06:41:27.199Z,41.50
2022-08-03T06:44:03.216Z,51.30
2022-08-03T06:46:30.823Z,52.00
2022-08-03T06:52:04.385Z,51.50
2022-08-03T06:54:12.325Z,52.30
2022-08-03T06:56:39.210Z,50.70
2022-08-03T06:59:05.985Z,51.40
2022-08-03T07:06:28.028Z,51.10
2022-08-03T07:11:26.756Z,40.00
2022-08-03T07:16:20.784Z,51.20
2022-08-03T07:18:47.602Z,51.10
2022-08-03T07:21:16.142Z,50.50
2022-08-03T07:23:42.949Z,49.20
2022-08-03T07:26:09.781Z,49.80
2022-08-03T07:33:31.600Z,49.00
2022-08-03T07:35:58.460Z,49.50
2022-08-03T07:38:25.297Z,48.40
2022-08-03T07:40:52.071Z,49.30
2022-08-03T07:43:18.897Z,47.50
2022-08-03T07:45:45.749Z,48.10
2022-08-03T07:48:12.812Z,42.40
2022-08-03T07:50:40.236Z,47.10
2022-08-03T07:55:35.131Z,46.20
2022-08-03T07:58:12.307Z,47.50
2022-08-03T08:00:39.579Z,46.20
2022-08-03T08:03:06.664Z,46.10
2022-08-03T08:05:34.185Z,46.80
2022-08-03T08:08:01.942Z,45.10
2022-08-03T08:10:28.827Z,46.50
2022-08-03T08:12:56.412Z,46.30
2022-08-03T08:15:23.563Z,36.50
2022-08-03T08:17:54.399Z,35.80
2022-08-03T08:20:30.696Z,45.10
2022-08-03T08:23:01.125Z,44.00
2022-08-03T08:25:29.129Z,43.90
2022-08-03T08:28:29.332Z,34.10
2022-08-03T08:30:42.812Z,42.20
2022-08-03T08:33:22.187Z,41.90
2022-08-03T08:35:51.339Z,33.30
2022-08-03T08:38:18.097Z,41.40
2022-08-03T08:40:45.031Z,41.20
2022-08-03T08:43:11.835Z,32.80
2022-08-03T08:45:40.499Z,31.50
2022-08-03T08:48:09.413Z,37.20
2022-08-03T08:50:38.742Z,29.90
2022-08-03T08:53:09.900Z,31.20
2022-08-03T08:55:58.988Z,39.90
2022-08-03T08:58:30.285Z,39.50
2022-08-03T09:00:57.411Z,30.10
2022-08-03T09:03:29.995Z,38.50
2022-08-03T09:06:00.672Z,29.90
2022-08-03T09:08:29.042Z,36.60
2022-08-03T09:10:55.973Z,28.50
2022-08-03T09:13:22.927Z,35.60
2022-08-03T09:16:08.745Z,28.60
2022-08-03T09:18:35.575Z,35.00
2022-08-03T09:21:34.837Z,27.40
2022-08-03T09:24:06.191Z,34.80
2022-08-03T09:26:37.457Z,34.50
2022-08-03T09:29:14.872Z,34.40
2022-08-03T09:31:45.361Z,33.60
2022-08-03T09:34:16.995Z,26.40
2022-08-03T09:36:46.345Z,33.60
2022-08-03T09:39:37.545Z,27.30
2022-08-03T09:42:10.901Z,33.30
2022-08-03T09:44:42.165Z,25.70
2022-08-03T09:47:11.338Z,31.80
2022-08-03T09:49:39.006Z,26.20
2022-08-03T09:52:38.766Z,24.60
2022-08-03T09:56:31.137Z,23.90
2022-08-03T09:58:10.262Z,24.40
2022-08-03T10:01:07.431Z,29.10
2022-08-03T10:04:03.352Z,29.50
2022-08-03T10:06:31.430Z,27.00
2022-08-03T10:09:12.535Z,22.30
2022-08-03T10:11:42.085Z,21.80
2022-08-03T10:14:19.450Z,20.90
2022-08-03T10:16:47.686Z,21.20
2022-08-03T10:19:15.583Z,21.20
2022-08-03T10:21:49.322Z,21.20
2022-08-03T10:24:20.202Z,20.80
2022-08-03T10:26:49.980Z,19.20
2022-08-03T10:29:25.098Z,19.20
2022-08-03T10:31:57.891Z,19.30
2022-08-03T10:34:29.139Z,19.10
2022-08-03T10:36:59.059Z,23.20
2022-08-03T10:39:29.613Z,22.90
2022-08-03T10:41:58.798Z,17.80
2022-08-03T10:44:37.106Z,18.40
2022-08-03T10:47:04.882Z,17.10
2022-08-03T10:49:34.788Z,23.10
2022-08-03T10:52:11.372Z,17.60
2022-08-03T10:55:07.313Z,16.50
2022-08-03T10:57:48.847Z,19.80
2022-08-03T11:00:21.617Z,14.80
2022-08-03T11:03:06.759Z,15.30
2022-08-03T11:05:55.922Z,15.50
2022-08-03T11:08:26.282Z,15.50
2022-08-03T11:11:14.651Z,14.90
2022-08-03T11:13:56.351Z,15.50
2022-08-03T11:16:25.688Z,13.90
2022-08-03T11:19:13.385Z,14.40
2022-08-03T11:21:51.811Z,18.20
2022-08-03T11:24:36.813Z,19.30
2022-08-03T11:27:22.580Z,13.80
2022-08-03T11:30:04.910Z,12.80
2022-08-03T11:32:37.560Z,13.40
2022-08-03T11:35:19.692Z,12.80
2022-08-03T11:38:03.494Z,12.00
2022-08-03T11:40:45.355Z,12.20
2022-08-03T11:43:31.432Z,11.40
2022-08-03T11:46:02.621Z,10.70
2022-08-03T11:48:38.242Z,11.50
2022-08-03T11:51:07.289Z,11.40
2022-08-03T11:53:41.727Z,11.30
2022-08-03T11:56:12.985Z,11.40
2022-08-03T11:59:00.815Z,10.60
2022-08-03T12:01:41.894Z,10.80
2022-08-03T12:04:08.743Z,11.10
2022-08-03T12:06:54.751Z,11.40
2022-08-03T12:09:22.131Z,10.40
2022-08-03T12:11:59.525Z,10.70
2022-08-03T12:14:50.503Z,10.30
2022-08-03T12:17:16.699Z,8.00
2022-08-03T12:19:44.613Z,8.30
2022-08-03T12:22:11.437Z,8.90
2022-08-03T12:24:42.803Z,8.30
2022-08-03T12:27:09.708Z,7.40
2022-08-03T12:29:36.773Z,7.90
2022-08-03T12:32:03.816Z,7.40
2022-08-03T12:34:49.916Z,7.70
2022-08-03T12:37:22.482Z,7.20
2022-08-03T12:40:02.723Z,7.80
2022-08-03T12:42:34.981Z,8.00
2022-08-03T12:45:22.818Z,8.50
2022-08-03T12:48:00.529Z,8.70
2022-08-03T12:50:36.116Z,7.50
2022-08-03T12:53:05.485Z,7.90
2022-08-03T12:55:56.575Z,8.00
2022-08-03T12:58:36.164Z,8.00
2022-08-03T13:01:10.386Z,7.40
2022-08-03T13:03:50.039Z,7.90
2022-08-03T13:06:26.421Z,7.80
2022-08-03T13:09:05.495Z,8.30
2022-08-03T13:11:52.502Z,8.00
2022-08-03T13:14:20.597Z,8.10
2022-08-03T13:16:49.227Z,8.20
2022-08-03T13:19:16.336Z,7.60
2022-08-03T13:21:53.596Z,8.20
2022-08-03T13:24:31.557Z,8.50
2022-08-03T13:26:59.348Z,8.50
2022-08-03T13:29:26.166Z,8.50
2022-08-03T13:31:53.098Z,9.90
2022-08-03T13:34:23.439Z,9.20
2022-08-03T13:37:10.461Z,9.30
2022-08-03T13:39:58.407Z,9.20
2022-08-03T13:42:25.345Z,9.20
2022-08-03T13:44:52.365Z,8.60
2022-08-03T13:47:19.879Z,8.10
2022-08-03T13:49:54.342Z,8.10
2022-08-03T13:52:28.108Z,7.90
2022-08-03T13:54:55.259Z,7.80
2022-08-03T13:58:02.506Z,7.90
2022-08-03T14:00:09.743Z,7.70
2022-08-03T14:02:36.657Z,7.60
2022-08-03T14:05:03.610Z,7.40
2022-08-03T14:07:30.398Z,7.40
2022-08-03T14:09:57.172Z,7.20
2022-08-03T14:12:24.182Z,7.60
2022-08-03T14:14:50.964Z,7.80
2022-08-03T14:17:18.151Z,7.90
2022-08-03T14:19:53.301Z,7.40
2022-08-03T14:22:21.528Z,7.70
2022-08-03T14:24:49.181Z,7.90
2022-08-03T14:27:16.592Z,7.80
2022-08-03T14:29:43.518Z,7.60
2022-08-03T14:32:13.232Z,8.10
2022-08-03T14:34:40.733Z,8.30
2022-08-03T14:37:07.798Z,8.30
2022-08-03T14:42:21.904Z,7.90
2022-08-03T14:44:48.687Z,8.00
2022-08-03T14:47:15.674Z,7.90
2022-08-03T14:50:36.876Z,7.80
2022-08-03T14:52:30.586Z,7.80
2022-08-03T14:54:57.896Z,7.00
2022-08-03T14:57:24.987Z,6.60
2022-08-03T14:59:55.919Z,6.60
2022-08-03T15:02:24.895Z,6.30
2022-08-03T15:04:52.293Z,6.30
2022-08-03T15:07:20.426Z,6.80
2022-08-03T15:09:47.592Z,6.70
2022-08-03T15:12:14.393Z,6.60
2022-08-03T15:14:41.415Z,6.10
2022-08-03T15:17:08.497Z,6.30
2022-08-03T15:20:00.301Z,5.90
2022-08-03T15:22:24.887Z,6.30
2022-08-03T15:25:02.356Z,6.30
2022-08-03T15:27:29.122Z,6.80
2022-08-03T15:30:05.652Z,7.00
2022-08-03T15:32:36.622Z,7.20
2022-08-03T15:35:03.695Z,7.10
2022-08-03T15:37:30.492Z,7.00
2022-08-03T15:39:59.252Z,6.90
2022-08-03T15:42:29.183Z,6.40
2022-08-03T15:44:55.983Z,6.60
2022-08-03T15:47:23.069Z,6.30
2022-08-03T15:49:49.891Z,6.20
2022-08-03T15:52:16.713Z,6.60
2022-08-03T15:54:43.519Z,6.70
2022-08-03T15:57:10.325Z,6.50
2022-08-03T15:59:37.076Z,6.80
2022-08-03T16:02:04.116Z,7.40
2022-08-03T16:04:30.945Z,7.90
2022-08-03T16:06:57.844Z,7.90
2022-08-03T16:09:42.368Z,7.50
2022-08-03T16:12:14.617Z,7.90
2022-08-03T16:14:51.720Z,8.00
2022-08-03T16:17:19.892Z,7.50
2022-08-03T16:19:47.043Z,7.90
2022-08-03T16:22:14.473Z,7.70
2022-08-03T16:24:41.507Z,7.70
2022-08-03T16:27:37.499Z,7.60
2022-08-03T16:29:55.251Z,7.50
2022-08-03T16:32:22.025Z,7.80
2022-08-03T16:34:48.835Z,7.80
2022-08-03T16:37:37.799Z,7.70
2022-08-03T16:40:04.179Z,7.60
2022-08-03T16:42:30.980Z,7.70
2022-08-03T16:44:57.736Z,7.70
2022-08-03T16:47:24.631Z,7.70
2022-08-03T16:49:55.396Z,7.10
2022-08-03T16:52:22.870Z,7.30
2022-08-03T16:54:52.843Z,7.40
2022-08-03T16:57:56.382Z,7.40
2022-08-03T17:00:34.362Z,7.20
2022-08-03T17:03:01.165Z,8.10
2022-08-03T17:05:43.782Z,7.80
2022-08-03T17:08:14.608Z,7.70
2022-08-03T17:10:44.604Z,7.80
2022-08-03T17:13:21.846Z,7.60
2022-08-03T17:16:01.453Z,7.40
2022-08-03T17:18:35.215Z,7.00
2022-08-03T17:21:06.827Z,7.30
2022-08-03T17:23:56.497Z,7.40
2022-08-03T17:26:30.487Z,7.40
2022-08-03T17:29:11.240Z,7.40
2022-08-03T17:31:42.219Z,6.90
2022-08-03T17:34:16.109Z,7.40
2022-08-03T17:39:56.871Z,8.60
2022-08-03T17:42:31.267Z,9.60
2022-08-03T17:45:02.020Z,9.90
2022-08-03T17:47:42.370Z,9.90
2022-08-03T17:50:23.499Z,9.90
2022-08-03T17:53:00.824Z,9.80
2022-08-03T17:55:57.480Z,9.80
2022-08-03T17:58:25.473Z,10.10
2022-08-03T18:02:00.384Z,9.90
2022-08-03T18:04:10.945Z,10.10
2022-08-03T18:06:55.850Z,10.40
2022-08-03T18:10:04.079Z,10.60
2022-08-03T18:12:18.561Z,10.40
2022-08-03T18:14:57.554Z,10.90
2022-08-03T18:17:55.093Z,11.10
2022-08-03T18:23:24.563Z,10.80
2022-08-03T18:26:01.909Z,10.80
2022-08-03T18:28:29.546Z,11.20
2022-08-03T18:30:57.165Z,11.50
2022-08-03T18:34:18.285Z,11.60
2022-08-03T18:36:21.580Z,12.30
2022-08-03T18:38:51.800Z,12.10
2022-08-03T18:41:32.772Z,12.40
2022-08-03T18:44:08.046Z,12.60
2022-08-03T18:47:07.264Z,12.90
2022-08-03T18:49:58.632Z,13.20
2022-08-03T18:52:45.951Z,13.70
2022-08-03T18:55:35.750Z,14.10
2022-08-03T18:58:15.839Z,14.10
2022-08-03T19:01:01.403Z,14.10
2022-08-03T19:03:42.807Z,14.40
2022-08-03T19:06:20.355Z,14.80
2022-08-03T19:09:00.309Z,15.20
2022-08-03T19:12:12.646Z,15.00
2022-08-03T19:14:28.582Z,15.50
2022-08-03T19:17:07.833Z,20.90
2022-08-03T19:19:44.029Z,16.50
2022-08-03T19:22:15.982Z,15.80
2022-08-03T19:24:46.220Z,16.00
2022-08-03T19:27:14.196Z,16.40
2022-08-03T19:29:58.009Z,17.00
2022-08-03T19:32:28.878Z,17.00
2022-08-03T19:34:57.206Z,17.30
2022-08-03T19:37:38.172Z,17.60
2022-08-03T19:40:10.677Z,17.80
2022-08-03T19:42:44.382Z,17.80
2022-08-03T19:45:14.720Z,18.00
2022-08-03T19:47:51.378Z,18.00
2022-08-03T19:50:20.455Z,18.20
2022-08-03T19:52:49.597Z,24.10
2022-08-03T19:55:17.726Z,24.60
2022-08-03T19:57:47.255Z,24.90
2022-08-03T20:00:19.530Z,19.30
2022-08-03T20:02:47.282Z,25.00
2022-08-03T20:05:18.428Z,19.60
2022-08-03T20:07:47.643Z,19.80
2022-08-03T20:10:18.915Z,26.40
2022-08-03T20:12:47.041Z,20.20
2022-08-03T20:15:18.340Z,20.10
2022-08-03T20:17:58.481Z,20.20
2022-08-03T20:20:36.377Z,26.90
2022-08-03T20:23:13.185Z,20.70
2022-08-03T20:25:48.604Z,27.00
2022-08-03T20:28:50.147Z,21.10
2022-08-03T20:31:30.592Z,28.90
2022-08-03T20:34:00.251Z,21.90
2022-08-03T20:36:27.356Z,22.10
2022-08-03T20:38:57.604Z,22.30
2022-08-03T20:41:25.020Z,22.40
2022-08-03T20:43:51.869Z,29.10
2022-08-03T20:46:31.328Z,29.30
2022-08-03T20:49:04.027Z,29.30
2022-08-03T20:51:50.578Z,23.10
2022-08-03T20:54:22.860Z,23.30
2022-08-03T20:57:00.332Z,23.50
2022-08-03T20:59:47.045Z,23.80
2022-08-03T21:02:19.585Z,23.80
2022-08-03T21:04:56.169Z,24.00
2022-08-03T21:07:25.223Z,24.20
2022-08-03T21:10:15.304Z,31.50
2022-08-03T21:12:50.558Z,24.90
2022-08-03T21:12:57.649Z,11.10
2022-08-03T21:16:03.228Z,32.50
2022-08-03T21:18:14.061Z,25.50
2022-08-03T21:20:43.845Z,25.10
2022-08-03T21:23:12.351Z,33.30
2022-08-03T21:26:00.557Z,25.50
2022-08-03T21:28:29.063Z,31.70
2022-08-03T21:30:57.310Z,25.70
2022-08-03T21:33:28.053Z,26.20
2022-08-03T21:35:55.345Z,34.40
2022-08-03T21:38:29.869Z,34.00
2022-08-03T21:40:57.497Z,33.60
2022-08-03T21:43:24.578Z,27.30
2022-08-03T21:46:03.245Z,33.70
2022-08-03T21:48:40.276Z,27.10
2022-08-03T21:51:09.850Z,33.40
2022-08-03T21:54:02.962Z,27.20
2022-08-03T21:56:27.874Z,27.20
2022-08-03T21:59:04.032Z,27.30
2022-08-03T22:01:35.357Z,36.20
2022-08-03T22:04:07.396Z,36.30
2022-08-03T22:06:42.273Z,35.70
2022-08-03T22:09:09.489Z,34.80
2022-08-03T22:11:37.818Z,27.90
2022-08-03T22:14:05.025Z,28.10
2022-08-03T22:16:32.033Z,36.20
2022-08-03T22:18:59.157Z,28.30
2022-08-03T22:21:36.164Z,36.60
2022-08-03T22:24:06.055Z,28.90
2022-08-03T22:26:35.359Z,35.60
2022-08-03T22:29:08.031Z,35.90
2022-08-03T22:31:58.152Z,35.70
2022-08-03T22:34:26.801Z,36.50
2022-08-03T22:36:56.580Z,37.80
2022-08-03T22:39:28.385Z,36.80
2022-08-03T22:41:58.764Z,37.20
2022-08-03T22:44:26.833Z,36.90
2022-08-03T22:46:53.795Z,37.80
2022-08-03T22:49:22.126Z,33.40
2022-08-03T22:51:51.601Z,37.10
2022-08-03T22:54:18.866Z,37.20
2022-08-03T22:56:50.442Z,38.40
2022-08-03T22:59:38.949Z,36.90
2022-08-03T23:02:20.562Z,37.30
2022-08-03T23:04:54.871Z,37.20
2022-08-03T23:07:30.042Z,38.30
2022-08-03T23:09:58.032Z,36.20
2022-08-03T23:12:25.150Z,38.80
2022-08-03T23:14:56.041Z,29.50
2022-08-03T23:17:24.286Z,38.60
2022-08-03T23:19:52.661Z,38.10
2022-08-03T23:22:30.666Z,38.00
2022-08-03T23:24:58.893Z,38.30
2022-08-03T23:27:27.579Z,39.70
2022-08-03T23:29:58.653Z,39.80
2022-08-03T23:32:28.100Z,38.60
2022-08-03T23:35:15.941Z,39.90
2022-08-03T23:38:10.773Z,38.90
2022-08-03T23:40:32.588Z,40.10
2022-08-03T23:43:01.626Z,39.60
2022-08-03T23:45:31.690Z,39.30
2022-08-03T23:50:28.597Z,40.30
2022-08-03T23:52:58.188Z,40.50
2022-08-03T23:55:45.309Z,41.60
